West Ossipee, New Hampshire
Current Conditions -  °F | °C
As of 10:54 AM on Wednesday 22 Oct 2014 (Local Time) from KIZG Reporting Station
Light Rain Light Rain  
Wind Chill: 41°   Ceiling: 1800
Heat Index: 46°   Visibility: 8mi
Dew Point: 44°   Wind: 9mph
Humidity: 93%   Direction: 360°N
Pressure: 30.18"   Gusts: NA
Location:  43.82°N, 71.21°W
Report Text: KIZG 221454Z AUTO 36008KT 8SM -RA OVC018 08/07 A3018 RMK AO2 SLP223 P0005 60008 T00780067 52001
Loading
Personal Weather Stations






























Interactive Weather Map
Tropical Storm Tracking
New forecast layout! Learn more

10-Day Weather Forecast

Advertisements
Track Severe Weather on mobile